sensor_id;sensor_type;location;lat;lon;timestamp;pressure;altitude;pressure_sealevel;temperature;humidity
17060;BME280;8646;49.716;9.266;2023-01-26T00:01:58;100981.13;;;3.22;78.17
17060;BME280;8646;49.716;9.266;2023-01-26T00:05:04;100983.81;;;3.16;77.72
17060;BME280;8646;49.716;9.266;2023-01-26T00:08:11;100975.78;;;3.08;78.20
17060;BME280;8646;49.716;9.266;2023-01-26T00:11:18;100974.03;;;3.06;78.13
17060;BME280;8646;49.716;9.266;2023-01-26T00:14:23;100969.53;;;3.10;77.73
17060;BME280;8646;49.716;9.266;2023-01-26T00:17:27;100972.22;;;3.05;77.80
17060;BME280;8646;49.716;9.266;2023-01-26T00:20:30;100966.00;;;3.03;77.50
17060;BME280;8646;49.716;9.266;2023-01-26T00:23:35;100961.53;;;3.02;77.23
17060;BME280;8646;49.716;9.266;2023-01-26T00:26:38;100954.41;;;2.95;77.58
17060;BME280;8646;49.716;9.266;2023-01-26T00:29:42;100946.41;;;2.84;78.23
17060;BME280;8646;49.716;9.266;2023-01-26T00:32:48;100954.44;;;2.87;78.25
17060;BME280;8646;49.716;9.266;2023-01-26T00:35:58;100957.97;;;2.94;77.98
17060;BME280;8646;49.716;9.266;2023-01-26T00:39:01;100949.06;;;2.96;77.66
17060;BME280;8646;49.716;9.266;2023-01-26T00:42:04;100944.63;;;2.95;77.92
17060;BME280;8646;49.716;9.266;2023-01-26T00:45:15;100941.94;;;2.85;78.07
17060;BME280;8646;49.716;9.266;2023-01-26T00:48:18;100941.97;;;2.79;78.72
17060;BME280;8646;49.716;9.266;2023-01-26T00:51:28;100943.75;;;2.89;77.94
17060;BME280;8646;49.716;9.266;2023-01-26T00:54:31;100944.63;;;2.89;77.96
17060;BME280;8646;49.716;9.266;2023-01-26T00:57:35;100944.63;;;2.86;77.74
17060;BME280;8646;49.716;9.266;2023-01-26T01:00:39;100930.38;;;2.78;77.73
17060;BME280;8646;49.716;9.266;2023-01-26T01:03:41;100941.13;;;2.67;78.45
17060;BME280;8646;49.716;9.266;2023-01-26T01:06:45;100938.44;;;2.66;78.88
17060;BME280;8646;49.716;9.266;2023-01-26T01:09:50;100935.75;;;2.66;79.10
17060;BME280;8646;49.716;9.266;2023-01-26T01:12:55;100937.56;;;2.58;79.01
17060;BME280;8646;49.716;9.266;2023-01-26T01:16:05;100934.00;;;2.59;79.02
17060;BME280;8646;49.716;9.266;2023-01-26T01:19:12;100926.84;;;2.56;79.41
17060;BME280;8646;49.716;9.266;2023-01-26T01:22:21;100933.97;;;2.57;79.19
17060;BME280;8646;49.716;9.266;2023-01-26T01:25:26;100928.63;;;2.62;79.27
17060;BME280;8646;49.716;9.266;2023-01-26T01:28:28;100938.44;;;2.64;79.25
17060;BME280;8646;49.716;9.266;2023-01-26T01:31:33;100934.00;;;2.59;79.34
17060;BME280;8646;49.716;9.266;2023-01-26T01:34:35;100937.56;;;2.58;79.19
17060;BME280;8646;49.716;9.266;2023-01-26T01:37:38;100942.88;;;2.44;80.10
17060;BME280;8646;49.716;9.266;2023-01-26T01:40:41;100938.44;;;2.55;79.85
17060;BME280;8646;49.716;9.266;2023-01-26T01:43:44;100939.34;;;2.59;79.29
17060;BME280;8646;49.716;9.266;2023-01-26T01:46:52;100928.66;;;2.51;79.97
17060;BME280;8646;49.716;9.266;2023-01-26T01:49:56;100925.09;;;2.58;79.60
17060;BME280;8646;49.716;9.266;2023-01-26T01:52:59;100930.44;;;2.58;79.81
17060;BME280;8646;49.716;9.266;2023-01-26T01:56:08;100927.75;;;2.64;79.40
17060;BME280;8646;49.716;9.266;2023-01-26T01:59:12;100928.66;;;2.57;79.61
17060;BME280;8646;49.716;9.266;2023-01-26T02:02:17;100919.75;;;2.51;79.81
17060;BME280;8646;49.716;9.266;2023-01-26T02:05:24;100915.28;;;2.45;80.03
17060;BME280;8646;49.716;9.266;2023-01-26T02:08:30;100915.28;;;2.39;80.66
17060;BME280;8646;49.716;9.266;2023-01-26T02:11:38;100904.59;;;2.48;80.72
17060;BME280;8646;49.716;9.266;2023-01-26T02:14:42;100901.00;;;2.61;79.52
17060;BME280;8646;49.716;9.266;2023-01-26T02:17:46;100908.13;;;2.61;79.33
17060;BME280;8646;49.716;9.266;2023-01-26T02:20:50;100901.91;;;2.56;79.56
17060;BME280;8646;49.716;9.266;2023-01-26T02:24:09;100894.78;;;2.55;79.84
17060;BME280;8646;49.716;9.266;2023-01-26T02:27:27;100898.34;;;2.55;79.83
17060;BME280;8646;49.716;9.266;2023-01-26T02:30:30;100898.34;;;2.46;80.42
17060;BME280;8646;49.716;9.266;2023-01-26T02:33:33;100894.78;;;2.61;79.57
17060;BME280;8646;49.716;9.266;2023-01-26T02:36:36;100890.31;;;2.52;79.70
17060;BME280;8646;49.716;9.266;2023-01-26T02:39:43;100866.31;;;2.37;80.38
17060;BME280;8646;49.716;9.266;2023-01-26T02:42:51;100884.97;;;2.52;80.44
17060;BME280;8646;49.716;9.266;2023-01-26T02:45:55;100880.53;;;2.59;80.38
17060;BME280;8646;49.716;9.266;2023-01-26T02:48:57;100877.84;;;2.65;80.44
17060;BME280;8646;49.716;9.266;2023-01-26T02:52:20;100876.97;;;2.67;80.42
17060;BME280;8646;49.716;9.266;2023-01-26T02:55:23;100874.28;;;2.74;80.33
17060;BME280;8646;49.716;9.266;2023-01-26T02:58:28;100864.44;;;2.79;80.17
17060;BME280;8646;49.716;9.266;2023-01-26T03:01:30;100864.47;;;2.83;79.81
17060;BME280;8646;49.716;9.266;2023-01-26T03:04:33;100860.00;;;2.78;79.67
17060;BME280;8646;49.716;9.266;2023-01-26T03:07:36;100862.66;;;2.78;80.27
17060;BME280;8646;49.716;9.266;2023-01-26T03:10:39;100851.97;;;2.84;79.76
17060;BME280;8646;49.716;9.266;2023-01-26T03:13:43;100851.97;;;2.78;80.12
17060;BME280;8646;49.716;9.266;2023-01-26T03:16:46;100848.41;;;2.77;80.04
17060;BME280;8646;49.716;9.266;2023-01-26T03:19:48;100854.66;;;2.78;80.31
17060;BME280;8646;49.716;9.266;2023-01-26T03:23:09;100851.09;;;2.82;80.29
17060;BME280;8646;49.716;9.266;2023-01-26T03:26:33;100857.31;;;2.91;80.03
17060;BME280;8646;49.716;9.266;2023-01-26T03:29:57;100839.47;;;2.84;79.75
17060;BME280;8646;49.716;9.266;2023-01-26T03:33:01;100839.50;;;2.83;79.87
17060;BME280;8646;49.716;9.266;2023-01-26T03:36:04;100833.28;;;2.81;80.38
17060;BME280;8646;49.716;9.266;2023-01-26T03:39:07;100837.72;;;2.83;80.44
17060;BME280;8646;49.716;9.266;2023-01-26T03:42:10;100835.03;;;2.89;80.43
17060;BME280;8646;49.716;9.266;2023-01-26T03:45:31;100829.66;;;2.95;79.44
17060;BME280;8646;49.716;9.266;2023-01-26T03:48:51;100825.22;;;2.90;79.78
17060;BME280;8646;49.716;9.266;2023-01-26T03:52:12;100821.66;;;2.89;79.39
17060;BME280;8646;49.716;9.266;2023-01-26T03:55:34;100811.00;;;2.77;79.89
17060;BME280;8646;49.716;9.266;2023-01-26T03:58:55;100817.22;;;2.76;80.27
17060;BME280;8646;49.716;9.266;2023-01-26T04:02:00;100812.78;;;2.80;80.41
17060;BME280;8646;49.716;9.266;2023-01-26T04:05:23;100802.97;;;2.83;80.13
17060;BME280;8646;49.716;9.266;2023-01-26T04:08:43;100805.63;;;2.85;80.23
17060;BME280;8646;49.716;9.266;2023-01-26T04:11:48;100813.66;;;2.82;80.67
17060;BME280;8646;49.716;9.266;2023-01-26T04:14:50;100799.41;;;2.83;80.52
17060;BME280;8646;49.716;9.266;2023-01-26T04:18:12;100802.06;;;2.87;80.44
17060;BME280;8646;49.716;9.266;2023-01-26T04:21:34;100803.84;;;2.85;80.50
17060;BME280;8646;49.716;9.266;2023-01-26T04:24:37;100794.94;;;2.86;80.58
17060;BME280;8646;49.716;9.266;2023-01-26T04:27:41;100792.25;;;2.85;80.57
17060;BME280;8646;49.716;9.266;2023-01-26T04:30:44;100797.63;;;2.82;80.53
17060;BME280;8646;49.716;9.266;2023-01-26T04:33:51;100794.97;;;2.82;80.79
17060;BME280;8646;49.716;9.266;2023-01-26T04:36:56;100794.94;;;2.86;80.69
17060;BME280;8646;49.716;9.266;2023-01-26T04:39:59;100786.00;;;2.87;80.90
17060;BME280;8646;49.716;9.266;2023-01-26T04:43:02;100788.69;;;2.90;80.70
17060;BME280;8646;49.716;9.266;2023-01-26T04:46:06;100786.91;;;2.91;80.54
17060;BME280;8646;49.716;9.266;2023-01-26T04:49:10;100783.34;;;2.86;80.66
17060;BME280;8646;49.716;9.266;2023-01-26T04:52:13;100791.41;;;2.83;80.45
17060;BME280;8646;49.716;9.266;2023-01-26T04:55:16;100782.47;;;2.82;80.79
17060;BME280;8646;49.716;9.266;2023-01-26T04:58:19;100790.50;;;2.82;80.88
17060;BME280;8646;49.716;9.266;2023-01-26T05:01:22;100790.50;;;2.82;80.71
17060;BME280;8646;49.716;9.266;2023-01-26T05:04:26;100792.31;;;2.76;81.55
17060;BME280;8646;49.716;9.266;2023-01-26T05:07:30;100788.72;;;2.77;81.23
17060;BME280;8646;49.716;9.266;2023-01-26T05:10:33;100787.88;;;2.65;81.70
17060;BME280;8646;49.716;9.266;2023-01-26T05:13:36;100803.03;;;2.53;82.11
17060;BME280;8646;49.716;9.266;2023-01-26T05:16:40;100786.16;;;2.46;82.70
17060;BME280;8646;49.716;9.266;2023-01-26T05:19:44;100786.16;;;2.51;82.73
17060;BME280;8646;49.716;9.266;2023-01-26T05:22:46;100794.16;;;2.58;82.43
17060;BME280;8646;49.716;9.266;2023-01-26T05:25:49;100789.69;;;2.59;82.56
17060;BME280;8646;49.716;9.266;2023-01-26T05:28:52;100793.25;;;2.52;82.77
17060;BME280;8646;49.716;9.266;2023-01-26T05:31:55;100791.50;;;2.48;82.94
17060;BME280;8646;49.716;9.266;2023-01-26T05:35:07;100791.47;;;2.58;82.49
17060;BME280;8646;49.716;9.266;2023-01-26T05:38:10;100799.50;;;2.48;82.76
17060;BME280;8646;49.716;9.266;2023-01-26T05:41:13;100799.50;;;2.46;82.82
17060;BME280;8646;49.716;9.266;2023-01-26T05:44:15;100801.34;;;2.34;83.13
17060;BME280;8646;49.716;9.266;2023-01-26T05:47:18;100809.34;;;2.30;83.55
17060;BME280;8646;49.716;9.266;2023-01-26T05:50:22;100810.19;;;2.36;83.49
17060;BME280;8646;49.716;9.266;2023-01-26T05:53:27;100816.44;;;2.41;83.52
17060;BME280;8646;49.716;9.266;2023-01-26T05:56:30;100810.16;;;2.52;83.00
17060;BME280;8646;49.716;9.266;2023-01-26T05:59:40;100813.75;;;2.47;82.82
17060;BME280;8646;49.716;9.266;2023-01-26T06:02:47;100816.47;;;2.35;83.12
17060;BME280;8646;49.716;9.266;2023-01-26T06:05:54;100823.56;;;2.28;83.31
17060;BME280;8646;49.716;9.266;2023-01-26T06:08:58;100824.47;;;2.35;83.07
17060;BME280;8646;49.716;9.266;2023-01-26T06:12:01;100812.00;;;2.32;82.93
17060;BME280;8646;49.716;9.266;2023-01-26T06:15:10;100822.69;;;2.43;82.48
17060;BME280;8646;49.716;9.266;2023-01-26T06:18:14;100816.44;;;2.48;82.32
17060;BME280;8646;49.716;9.266;2023-01-26T06:21:18;100817.34;;;2.43;82.88
17060;BME280;8646;49.716;9.266;2023-01-26T06:24:20;100827.16;;;2.27;83.58
17060;BME280;8646;49.716;9.266;2023-01-26T06:27:24;100828.03;;;2.30;83.74
17060;BME280;8646;49.716;9.266;2023-01-26T06:30:26;100826.25;;;2.23;83.41
17060;BME280;8646;49.716;9.266;2023-01-26T06:33:31;100828.94;;;2.16;84.19
17060;BME280;8646;49.716;9.266;2023-01-26T06:36:37;100822.72;;;2.15;84.30
17060;BME280;8646;49.716;9.266;2023-01-26T06:39:39;100824.50;;;2.07;84.30
17060;BME280;8646;49.716;9.266;2023-01-26T06:42:46;100823.59;;;2.04;84.75
17060;BME280;8646;49.716;9.266;2023-01-26T06:45:49;100828.03;;;2.05;84.97
17060;BME280;8646;49.716;9.266;2023-01-26T06:48:52;100831.59;;;2.05;85.03
17060;BME280;8646;49.716;9.266;2023-01-26T06:51:58;100828.06;;;2.11;85.16
17060;BME280;8646;49.716;9.266;2023-01-26T06:55:04;100832.50;;;2.18;84.90
17060;BME280;8646;49.716;9.266;2023-01-26T06:58:08;100829.84;;;2.27;84.83
17060;BME280;8646;49.716;9.266;2023-01-26T07:01:13;100833.34;;;2.38;84.21
17060;BME280;8646;49.716;9.266;2023-01-26T07:04:17;100829.78;;;2.54;82.37
17060;BME280;8646;49.716;9.266;2023-01-26T07:07:21;100827.13;;;2.38;83.07
17060;BME280;8646;49.716;9.266;2023-01-26T07:10:24;100833.38;;;2.32;83.52
17060;BME280;8646;49.716;9.266;2023-01-26T07:13:27;100833.41;;;2.11;84.58
17060;BME280;8646;49.716;9.266;2023-01-26T07:16:39;100827.16;;;2.09;84.89
17060;BME280;8646;49.716;9.266;2023-01-26T07:19:42;100834.28;;;2.17;85.06
17060;BME280;8646;49.716;9.266;2023-01-26T07:22:47;100842.28;;;2.28;84.72
17060;BME280;8646;49.716;9.266;2023-01-26T07:25:53;100840.50;;;2.30;84.73
17060;BME280;8646;49.716;9.266;2023-01-26T07:28:55;100842.28;;;2.28;84.76
17060;BME280;8646;49.716;9.266;2023-01-26T07:31:58;100844.06;;;2.32;84.81
17060;BME280;8646;49.716;9.266;2023-01-26T07:35:01;100849.41;;;2.34;84.77
17060;BME280;8646;49.716;9.266;2023-01-26T07:38:08;100849.38;;;2.27;85.02
17060;BME280;8646;49.716;9.266;2023-01-26T07:41:11;100848.50;;;2.32;84.94
17060;BME280;8646;49.716;9.266;2023-01-26T07:44:17;100852.97;;;2.31;84.82
17060;BME280;8646;49.716;9.266;2023-01-26T07:47:20;100853.84;;;2.38;84.45
17060;BME280;8646;49.716;9.266;2023-01-26T07:50:23;100860.97;;;2.39;84.48
17060;BME280;8646;49.716;9.266;2023-01-26T07:53:28;100854.75;;;2.43;84.21
17060;BME280;8646;49.716;9.266;2023-01-26T07:56:31;100854.75;;;2.43;84.01
17060;BME280;8646;49.716;9.266;2023-01-26T07:59:34;100846.75;;;2.34;84.11
17060;BME280;8646;49.716;9.266;2023-01-26T08:02:39;100841.38;;;2.21;84.64
17060;BME280;8646;49.716;9.266;2023-01-26T08:05:42;100847.63;;;2.33;84.49
17060;BME280;8646;49.716;9.266;2023-01-26T08:08:52;100840.50;;;2.30;84.17
17060;BME280;8646;49.716;9.266;2023-01-26T08:11:55;100828.94;;;2.22;84.61
17060;BME280;8646;49.716;9.266;2023-01-26T08:14:59;100834.25;;;2.37;84.46
17060;BME280;8646;49.716;9.266;2023-01-26T08:18:02;100836.03;;;2.47;84.01
17060;BME280;8646;49.716;9.266;2023-01-26T08:21:05;100817.34;;;2.32;84.11
17060;BME280;8646;49.716;9.266;2023-01-26T08:24:12;100834.25;;;2.46;84.16
17060;BME280;8646;49.716;9.266;2023-01-26T08:27:14;100842.25;;;2.49;84.01
17060;BME280;8646;49.716;9.266;2023-01-26T08:30:17;100842.25;;;2.55;83.67
17060;BME280;8646;49.716;9.266;2023-01-26T08:33:20;100836.91;;;2.58;83.16
17060;BME280;8646;49.716;9.266;2023-01-26T08:36:23;100836.03;;;2.47;83.52
17060;BME280;8646;49.716;9.266;2023-01-26T08:39:27;100847.59;;;2.48;83.70
17060;BME280;8646;49.716;9.266;2023-01-26T08:42:30;100852.94;;;2.49;83.82
17060;BME280;8646;49.716;9.266;2023-01-26T08:45:33;100839.56;;;2.55;83.17
17060;BME280;8646;49.716;9.266;2023-01-26T08:48:36;100848.50;;;2.51;83.49
17060;BME280;8646;49.716;9.266;2023-01-26T08:51:42;100856.50;;;2.48;83.52
17060;BME280;8646;49.716;9.266;2023-01-26T08:54:48;100857.38;;;2.53;83.67
17060;BME280;8646;49.716;9.266;2023-01-26T08:57:54;100858.25;;;2.52;83.35
17060;BME280;8646;49.716;9.266;2023-01-26T09:00:57;100858.28;;;2.45;83.84
17060;BME280;8646;49.716;9.266;2023-01-26T09:04:00;100867.22;;;2.42;83.57
17060;BME280;8646;49.716;9.266;2023-01-26T09:07:03;100858.28;;;2.49;82.84
17060;BME280;8646;49.716;9.266;2023-01-26T09:10:11;100859.19;;;2.30;83.36
17060;BME280;8646;49.716;9.266;2023-01-26T09:13:14;100852.06;;;2.06;84.74
17060;BME280;8646;49.716;9.266;2023-01-26T09:16:18;100854.75;;;2.08;85.55
17060;BME280;8646;49.716;9.266;2023-01-26T09:19:21;100862.75;;;2.06;85.71
17060;BME280;8646;49.716;9.266;2023-01-26T09:22:24;100859.19;;;2.12;85.59
17060;BME280;8646;49.716;9.266;2023-01-26T09:25:28;100858.31;;;2.16;85.08
17060;BME280;8646;49.716;9.266;2023-01-26T09:28:31;100854.72;;;2.20;84.92
17060;BME280;8646;49.716;9.266;2023-01-26T09:31:34;100867.22;;;2.18;84.85
17060;BME280;8646;49.716;9.266;2023-01-26T09:34:40;100866.34;;;2.10;85.18
17060;BME280;8646;49.716;9.266;2023-01-26T09:37:46;100865.44;;;2.11;85.19
17060;BME280;8646;49.716;9.266;2023-01-26T09:40:59;100869.88;;;2.16;85.40
17060;BME280;8646;49.716;9.266;2023-01-26T09:44:11;100872.56;;;2.15;85.58
17060;BME280;8646;49.716;9.266;2023-01-26T09:47:22;100868.09;;;2.08;85.77
17060;BME280;8646;49.716;9.266;2023-01-26T09:50:33;100871.66;;;2.25;84.39
17060;BME280;8646;49.716;9.266;2023-01-26T09:53:44;100877.00;;;2.26;83.71
17060;BME280;8646;49.716;9.266;2023-01-26T09:56:54;100872.56;;;2.24;83.26
17060;BME280;8646;49.716;9.266;2023-01-26T10:00:00;100876.13;;;2.11;83.37
17060;BME280;8646;49.716;9.266;2023-01-26T10:03:11;100865.44;;;2.08;83.22
17060;BME280;8646;49.716;9.266;2023-01-26T10:06:24;100853.84;;;2.04;83.07
17060;BME280;8646;49.716;9.266;2023-01-26T10:09:31;100859.22;;;2.03;82.96
17060;BME280;8646;49.716;9.266;2023-01-26T10:12:37;100867.19;;;2.06;83.20
17060;BME280;8646;49.716;9.266;2023-01-26T10:15:41;100867.22;;;2.24;81.83
17060;BME280;8646;49.716;9.266;2023-01-26T10:18:49;100866.31;;;2.07;82.13
17060;BME280;8646;49.716;9.266;2023-01-26T10:21:58;100857.41;;;1.96;82.58
17060;BME280;8646;49.716;9.266;2023-01-26T10:25:12;100858.31;;;1.98;82.53
17060;BME280;8646;49.716;9.266;2023-01-26T10:28:25;100850.28;;;2.14;82.49
17060;BME280;8646;49.716;9.266;2023-01-26T10:31:31;100855.66;;;2.19;82.22
17060;BME280;8646;49.716;9.266;2023-01-26T10:34:37;100847.63;;;2.43;80.45
17060;BME280;8646;49.716;9.266;2023-01-26T10:37:41;100846.72;;;2.30;80.48
17060;BME280;8646;49.716;9.266;2023-01-26T10:40:44;100846.72;;;2.41;80.17
17060;BME280;8646;49.716;9.266;2023-01-26T10:43:52;100827.13;;;2.42;78.17
17060;BME280;8646;49.716;9.266;2023-01-26T10:47:13;100831.59;;;2.43;77.96
17060;BME280;8646;49.716;9.266;2023-01-26T10:50:21;100834.28;;;2.26;77.75
17060;BME280;8646;49.716;9.266;2023-01-26T10:53:25;100828.94;;;2.07;79.32
17060;BME280;8646;49.716;9.266;2023-01-26T10:56:30;100831.63;;;2.19;78.09
17060;BME280;8646;49.716;9.266;2023-01-26T10:59:37;100820.94;;;2.16;76.49
17060;BME280;8646;49.716;9.266;2023-01-26T11:02:49;100823.59;;;2.13;76.04
17060;BME280;8646;49.716;9.266;2023-01-26T11:06:04;100822.72;;;1.92;77.72
17060;BME280;8646;49.716;9.266;2023-01-26T11:09:10;100828.06;;;1.99;78.56
17060;BME280;8646;49.716;9.266;2023-01-26T11:12:19;100821.81;;;2.12;77.40
17060;BME280;8646;49.716;9.266;2023-01-26T11:15:24;100825.38;;;2.23;75.92
17060;BME280;8646;49.716;9.266;2023-01-26T11:18:36;100823.63;;;2.19;76.21
17060;BME280;8646;49.716;9.266;2023-01-26T11:21:52;100817.38;;;2.08;76.68
17060;BME280;8646;49.716;9.266;2023-01-26T11:25:02;100819.16;;;2.15;77.74
17060;BME280;8646;49.716;9.266;2023-01-26T11:28:33;100813.75;;;2.36;75.48
17060;BME280;8646;49.716;9.266;2023-01-26T11:31:48;100804.91;;;2.34;74.41
17060;BME280;8646;49.716;9.266;2023-01-26T11:35:02;100798.63;;;2.47;72.68
17060;BME280;8646;49.716;9.266;2023-01-26T11:38:23;100774.66;;;2.17;73.10
17060;BME280;8646;49.716;9.266;2023-01-26T11:41:42;100791.56;;;2.13;73.94
17060;BME280;8646;49.716;9.266;2023-01-26T11:45:04;100786.22;;;1.96;74.73
17060;BME280;8646;49.716;9.266;2023-01-26T11:48:20;100784.47;;;1.86;76.02
17060;BME280;8646;49.716;9.266;2023-01-26T11:51:40;100785.34;;;1.89;76.47
17060;BME280;8646;49.716;9.266;2023-01-26T11:54:59;100794.25;;;2.01;76.64
17060;BME280;8646;49.716;9.266;2023-01-26T11:58:23;100785.34;;;2.08;75.68
17060;BME280;8646;49.716;9.266;2023-01-26T12:01:30;100745.28;;;2.08;74.86
17060;BME280;8646;49.716;9.266;2023-01-26T12:04:39;100761.28;;;2.21;74.28
17060;BME280;8646;49.716;9.266;2023-01-26T12:07:49;100763.06;;;2.15;73.89
17060;BME280;8646;49.716;9.266;2023-01-26T12:11:00;100755.06;;;2.12;74.39
17060;BME280;8646;49.716;9.266;2023-01-26T12:14:27;100752.38;;;2.35;72.77
17060;BME280;8646;49.716;9.266;2023-01-26T12:17:43;100756.84;;;2.25;73.90
17060;BME280;8646;49.716;9.266;2023-01-26T12:20:54;100753.25;;;2.20;75.30
17060;BME280;8646;49.716;9.266;2023-01-26T12:24:04;100759.47;;;2.33;75.79
17060;BME280;8646;49.716;9.266;2023-01-26T12:27:17;100752.34;;;2.41;75.96
17060;BME280;8646;49.716;9.266;2023-01-26T12:30:30;100742.50;;;2.47;75.56
17060;BME280;8646;49.716;9.266;2023-01-26T12:33:36;100729.09;;;2.61;74.49
17060;BME280;8646;49.716;9.266;2023-01-26T12:36:48;100730.91;;;2.57;74.04
17060;BME280;8646;49.716;9.266;2023-01-26T12:39:59;100720.25;;;2.51;72.65
17060;BME280;8646;49.716;9.266;2023-01-26T12:43:18;100719.38;;;2.37;74.61
17060;BME280;8646;49.716;9.266;2023-01-26T12:46:26;100708.69;;;2.46;74.85
17060;BME280;8646;49.716;9.266;2023-01-26T12:49:35;100701.53;;;2.57;73.31
17060;BME280;8646;49.716;9.266;2023-01-26T12:52:46;100709.56;;;2.51;74.52
17060;BME280;8646;49.716;9.266;2023-01-26T12:55:54;100697.97;;;2.58;74.89
17060;BME280;8646;49.716;9.266;2023-01-26T12:58:59;100704.13;;;2.73;73.89
17060;BME280;8646;49.716;9.266;2023-01-26T13:02:16;100707.72;;;2.61;74.74
17060;BME280;8646;49.716;9.266;2023-01-26T13:05:27;100704.19;;;2.57;74.75
17060;BME280;8646;49.716;9.266;2023-01-26T13:08:51;100708.59;;;2.67;74.46
17060;BME280;8646;49.716;9.266;2023-01-26T13:12:01;100705.91;;;2.75;72.09
17060;BME280;8646;49.716;9.266;2023-01-26T13:15:05;100695.22;;;2.69;70.99
17060;BME280;8646;49.716;9.266;2023-01-26T13:18:12;100702.41;;;2.53;71.77
17060;BME280;8646;49.716;9.266;2023-01-26T13:21:25;100701.56;;;2.47;70.85
17060;BME280;8646;49.716;9.266;2023-01-26T13:24:46;100706.97;;;2.19;72.87
17060;BME280;8646;49.716;9.266;2023-01-26T13:27:54;100703.41;;;2.22;72.11
17060;BME280;8646;49.716;9.266;2023-01-26T13:31:05;100703.44;;;2.16;73.54
17060;BME280;8646;49.716;9.266;2023-01-26T13:34:08;100704.28;;;2.33;73.69
17060;BME280;8646;49.716;9.266;2023-01-26T13:37:15;100703.34;;;2.45;72.97
17060;BME280;8646;49.716;9.266;2023-01-26T13:40:23;100715.78;;;2.52;72.33
17060;BME280;8646;49.716;9.266;2023-01-26T13:43:34;100708.69;;;2.49;73.06
17060;BME280;8646;49.716;9.266;2023-01-26T13:46:42;100712.22;;;2.56;73.74
17060;BME280;8646;49.716;9.266;2023-01-26T13:49:46;100678.41;;;2.49;73.64
17060;BME280;8646;49.716;9.266;2023-01-26T13:52:54;100706.78;;;2.76;73.38
17060;BME280;8646;49.716;9.266;2023-01-26T13:55:59;100700.47;;;2.87;70.64
17060;BME280;8646;49.716;9.266;2023-01-26T13:59:07;100695.25;;;2.63;70.86
17060;BME280;8646;49.716;9.266;2023-01-26T14:02:19;100696.22;;;2.51;71.56
17060;BME280;8646;49.716;9.266;2023-01-26T14:05:23;100709.53;;;2.56;71.46
17060;BME280;8646;49.716;9.266;2023-01-26T14:08:26;100705.09;;;2.53;71.74
17060;BME280;8646;49.716;9.266;2023-01-26T14:11:32;100710.50;;;2.38;73.08
17060;BME280;8646;49.716;9.266;2023-01-26T14:14:36;100714.94;;;2.41;73.52
17060;BME280;8646;49.716;9.266;2023-01-26T14:17:47;100706.00;;;2.48;72.62
17060;BME280;8646;49.716;9.266;2023-01-26T14:20:57;100703.31;;;2.55;71.45
17060;BME280;8646;49.716;9.266;2023-01-26T14:24:01;100711.31;;;2.58;71.24
17060;BME280;8646;49.716;9.266;2023-01-26T14:27:14;100716.72;;;2.40;72.90
17060;BME280;8646;49.716;9.266;2023-01-26T14:30:26;100717.63;;;2.42;73.04
17060;BME280;8646;49.716;9.266;2023-01-26T14:33:29;100715.81;;;2.46;73.06
17060;BME280;8646;49.716;9.266;2023-01-26T14:36:32;100716.69;;;2.48;72.86
17060;BME280;8646;49.716;9.266;2023-01-26T14:39:40;100722.06;;;2.42;73.45
17060;BME280;8646;49.716;9.266;2023-01-26T14:42:46;100717.59;;;2.48;72.94
17060;BME280;8646;49.716;9.266;2023-01-26T14:45:54;100717.59;;;2.36;73.39
17060;BME280;8646;49.716;9.266;2023-01-26T14:49:03;100722.03;;;2.48;71.97
17060;BME280;8646;49.716;9.266;2023-01-26T14:52:20;100728.28;;;2.36;72.28
17060;BME280;8646;49.716;9.266;2023-01-26T14:55:27;100731.91;;;2.26;72.96
17060;BME280;8646;49.716;9.266;2023-01-26T14:58:32;100730.13;;;2.22;73.77
17060;BME280;8646;49.716;9.266;2023-01-26T15:01:35;100726.53;;;2.35;73.40
17060;BME280;8646;49.716;9.266;2023-01-26T15:04:39;100738.97;;;2.36;73.36
17060;BME280;8646;49.716;9.266;2023-01-26T15:07:44;100721.19;;;2.41;72.12
17060;BME280;8646;49.716;9.266;2023-01-26T15:10:55;100737.22;;;2.32;72.78
17060;BME280;8646;49.716;9.266;2023-01-26T15:14:36;100747.91;;;2.30;72.86
17060;BME280;8646;49.716;9.266;2023-01-26T15:17:41;100737.22;;;2.29;72.35
17060;BME280;8646;49.716;9.266;2023-01-26T15:20:51;100719.50;;;2.01;72.44
17060;BME280;8646;49.716;9.266;2023-01-26T15:24:02;100735.50;;;2.01;73.62
17060;BME280;8646;49.716;9.266;2023-01-26T15:27:05;100756.84;;;2.13;74.04
17060;BME280;8646;49.716;9.266;2023-01-26T15:30:17;100753.28;;;2.14;74.06
17060;BME280;8646;49.716;9.266;2023-01-26T15:33:43;100751.50;;;2.16;73.83
17060;BME280;8646;49.716;9.266;2023-01-26T15:36:47;100753.28;;;2.14;74.08
17060;BME280;8646;49.716;9.266;2023-01-26T15:39:50;100753.28;;;2.14;74.06
17060;BME280;8646;49.716;9.266;2023-01-26T15:43:08;100754.19;;;2.19;73.26
17060;BME280;8646;49.716;9.266;2023-01-26T15:46:22;100745.28;;;2.11;73.71
17060;BME280;8646;49.716;9.266;2023-01-26T15:49:25;100750.63;;;2.09;74.05
17060;BME280;8646;49.716;9.266;2023-01-26T15:52:31;100753.28;;;2.17;74.08
17060;BME280;8646;49.716;9.266;2023-01-26T15:55:34;100742.56;;;2.29;72.80
17060;BME280;8646;49.716;9.266;2023-01-26T15:58:38;100743.47;;;2.31;71.07
17060;BME280;8646;49.716;9.266;2023-01-26T16:01:42;100739.03;;;2.24;71.10
17060;BME280;8646;49.716;9.266;2023-01-26T16:04:45;100743.47;;;2.23;69.09
17060;BME280;8646;49.716;9.266;2023-01-26T16:07:51;100747.06;;;2.16;68.56
17060;BME280;8646;49.716;9.266;2023-01-26T16:10:56;100738.19;;;1.95;69.01
17060;BME280;8646;49.716;9.266;2023-01-26T16:14:00;100759.56;;;1.78;70.20
17060;BME280;8646;49.716;9.266;2023-01-26T16:17:11;100747.13;;;1.62;70.76
17060;BME280;8646;49.716;9.266;2023-01-26T16:20:15;100754.22;;;1.61;71.54
17060;BME280;8646;49.716;9.266;2023-01-26T16:23:25;100755.09;;;1.75;69.97
17060;BME280;8646;49.716;9.266;2023-01-26T16:26:30;100753.34;;;1.86;68.30
17060;BME280;8646;49.716;9.266;2023-01-26T16:29:33;100754.22;;;1.75;68.72
17060;BME280;8646;49.716;9.266;2023-01-26T16:32:37;100754.22;;;1.70;69.08
17060;BME280;8646;49.716;9.266;2023-01-26T16:35:40;100756.88;;;1.76;68.52
17060;BME280;8646;49.716;9.266;2023-01-26T16:38:43;100756.88;;;1.64;69.52
17060;BME280;8646;49.716;9.266;2023-01-26T16:41:46;100756.88;;;1.69;69.46
17060;BME280;8646;49.716;9.266;2023-01-26T16:45:03;100759.56;;;1.76;69.09